createdAt,value
2018-02-17T00:02:06.675Z,35.93
2018-02-17T00:05:10.794Z,31.23
2018-02-17T00:08:14.123Z,36.40
2018-02-17T00:11:17.736Z,32.70
2018-02-17T00:14:21.860Z,35.80
2018-02-17T00:17:25.219Z,43.40
2018-02-17T00:20:28.591Z,38.00
2018-02-17T00:23:33.453Z,40.67
2018-02-17T00:26:38.494Z,37.22
2018-02-17T00:29:42.631Z,33.67
2018-02-17T00:32:45.996Z,37.87
2018-02-17T00:35:49.349Z,39.03
2018-02-17T00:38:52.679Z,39.10
2018-02-17T00:41:56.826Z,32.46
2018-02-17T00:45:00.243Z,35.13
2018-02-17T00:48:03.557Z,37.47
2018-02-17T00:51:09.033Z,32.97
2018-02-17T00:54:12.411Z,30.00
2018-02-17T00:57:32.975Z,37.40
2018-02-17T01:00:39.705Z,30.67
2018-02-17T01:03:43.044Z,35.55
2018-02-17T01:06:46.573Z,37.63
2018-02-17T01:09:50.718Z,31.65
2018-02-17T01:12:55.795Z,34.90
2018-02-17T01:15:59.163Z,37.63
2018-02-17T01:19:02.569Z,33.07
2018-02-17T01:22:06.664Z,35.57
2018-02-17T01:25:10.010Z,42.47
2018-02-17T01:28:13.383Z,44.30
2018-02-17T01:31:17.487Z,52.83
2018-02-17T01:34:20.930Z,40.67
2018-02-17T01:37:24.265Z,50.83
2018-02-17T01:40:27.617Z,36.23
2018-02-17T01:43:30.982Z,48.10
2018-02-17T01:46:34.320Z,40.90
2018-02-17T01:49:37.697Z,41.97
2018-02-17T01:52:41.057Z,37.87
2018-02-17T01:55:45.212Z,35.90
2018-02-17T01:58:49.354Z,35.00
2018-02-17T02:01:52.736Z,45.40
2018-02-17T02:04:57.598Z,37.38
2018-02-17T02:08:00.961Z,55.85
2018-02-17T02:11:04.305Z,45.73
2018-02-17T02:14:07.637Z,71.07
2018-02-17T02:17:11.513Z,61.80
2018-02-17T02:20:14.959Z,53.23
2018-02-17T02:23:18.468Z,44.00
2018-02-17T02:26:21.810Z,44.00
2018-02-17T02:29:26.881Z,39.17
2018-02-17T02:32:30.243Z,46.00
2018-02-17T02:35:34.473Z,62.17
2018-02-17T02:38:38.264Z,58.80
2018-02-17T02:41:43.013Z,39.30
2018-02-17T02:44:46.337Z,41.72
2018-02-17T02:47:49.685Z,35.27
2018-02-17T02:50:53.838Z,61.73
2018-02-17T02:53:57.170Z,58.37
2018-02-17T02:57:00.536Z,39.95
2018-02-17T03:00:04.763Z,63.13
2018-02-17T03:03:08.143Z,59.60
2018-02-17T03:06:13.561Z,61.50
2018-02-17T03:09:16.914Z,101.17
2018-02-17T03:12:20.249Z,43.43
2018-02-17T03:15:23.607Z,79.50
2018-02-17T03:18:26.962Z,97.00
2018-02-17T03:21:30.372Z,28.92
2018-02-17T03:24:34.483Z,54.10
2018-02-17T03:27:38.593Z,66.00
2018-02-17T03:30:41.966Z,81.40
2018-02-17T03:33:45.297Z,64.57
2018-02-17T03:36:49.393Z,34.20
2018-02-17T03:39:52.737Z,40.40
2018-02-17T03:42:56.109Z,86.33
2018-02-17T03:45:59.473Z,65.57
2018-02-17T03:49:02.808Z,59.70
2018-02-17T03:52:06.179Z,45.12
2018-02-17T03:55:09.518Z,80.40
2018-02-17T03:58:14.885Z,47.33
2018-02-17T04:01:18.217Z,61.00
2018-02-17T04:04:21.553Z,59.03
2018-02-17T04:07:24.920Z,48.50
2018-02-17T04:10:29.197Z,68.15
2018-02-17T04:13:32.541Z,70.17
2018-02-17T04:16:35.874Z,39.73
2018-02-17T04:19:39.994Z,40.13
2018-02-17T04:22:43.357Z,54.92
2018-02-17T04:25:46.709Z,34.20
2018-02-17T04:28:50.048Z,24.17
2018-02-17T04:31:53.374Z,30.87
2018-02-17T04:34:57.478Z,31.43
2018-02-17T04:38:00.800Z,32.03
2018-02-17T04:41:05.089Z,33.72
2018-02-17T04:44:10.812Z,45.50
2018-02-17T04:47:14.515Z,39.13
2018-02-17T04:50:23.510Z,22.73
2018-02-17T04:57:15.752Z,34.23
2018-02-17T05:00:19.774Z,29.80
2018-02-17T05:03:27.224Z,29.03
2018-02-17T05:06:45.465Z,25.10
2018-02-17T05:09:49.010Z,27.17
2018-02-17T05:12:52.267Z,34.00
2018-02-17T05:15:55.704Z,36.05
2018-02-17T05:23:01.134Z,59.30
2018-02-17T05:26:04.411Z,23.80
2018-02-17T05:29:10.605Z,34.17
2018-02-17T05:32:28.766Z,37.83
2018-02-17T05:35:34.828Z,37.70
2018-02-17T05:38:48.004Z,53.77
2018-02-17T05:42:01.957Z,26.07
2018-02-17T05:45:05.243Z,22.33
2018-02-17T05:48:18.705Z,31.50
2018-02-17T05:51:21.974Z,45.80
2018-02-17T05:54:26.492Z,28.87
2018-02-17T05:57:30.525Z,49.13
2018-02-17T06:00:33.798Z,37.07
2018-02-17T06:03:37.069Z,38.03
2018-02-17T06:06:40.400Z,36.47
2018-02-17T06:09:44.435Z,43.13
2018-02-17T06:12:47.706Z,31.43
2018-02-17T06:15:51.759Z,41.57
2018-02-17T06:22:23.520Z,36.30
2018-02-17T06:25:27.558Z,34.63
2018-02-17T06:28:30.830Z,26.37
2018-02-17T06:31:35.054Z,39.03
2018-02-17T06:34:39.081Z,34.17
2018-02-17T06:37:42.358Z,38.87
2018-02-17T06:40:45.896Z,36.33
2018-02-17T06:43:50.044Z,32.93
2018-02-17T06:46:54.829Z,42.10
2018-02-17T06:49:58.158Z,33.80
2018-02-17T06:53:01.432Z,44.47
2018-02-17T06:56:04.711Z,48.85
2018-02-17T06:59:08.010Z,36.90
2018-02-17T07:02:11.320Z,31.85
2018-02-17T07:05:14.562Z,28.77
2018-02-17T07:08:17.906Z,34.00
2018-02-17T07:11:21.175Z,43.23
2018-02-17T07:14:31.890Z,36.93
2018-02-17T07:17:36.753Z,43.10
2018-02-17T07:20:40.033Z,64.23
2018-02-17T07:23:43.425Z,73.93
2018-02-17T07:26:46.699Z,36.50
2018-02-17T07:29:49.985Z,61.58
2018-02-17T07:32:53.297Z,31.55
2018-02-17T07:35:56.694Z,53.23
2018-02-17T07:39:00.713Z,33.10
2018-02-17T07:42:03.994Z,48.43
2018-02-17T07:45:08.149Z,28.27
2018-02-17T07:48:11.455Z,33.37
2018-02-17T07:51:14.862Z,36.83
2018-02-17T07:54:18.185Z,52.03
2018-02-17T07:57:21.538Z,37.37
2018-02-17T08:00:24.802Z,29.92
2018-02-17T08:03:28.858Z,35.55
2018-02-17T08:06:32.125Z,29.63
2018-02-17T08:09:36.168Z,33.27
2018-02-17T08:12:39.465Z,45.90
2018-02-17T08:15:42.726Z,38.13
2018-02-17T08:18:47.373Z,56.43
2018-02-17T08:21:50.870Z,35.83
2018-02-17T08:25:14.658Z,39.87
2018-02-17T08:28:20.918Z,32.67
2018-02-17T08:31:24.900Z,21.12
2018-02-17T08:34:28.403Z,27.87
2018-02-17T08:37:31.947Z,24.00
2018-02-17T08:40:35.269Z,15.07
2018-02-17T08:43:38.543Z,19.33
2018-02-17T08:46:41.824Z,16.37
2018-02-17T08:49:45.844Z,15.23
2018-02-17T08:52:49.150Z,13.15
2018-02-17T08:55:52.453Z,14.73
2018-02-17T08:58:55.723Z,7.90
2018-02-17T09:01:59.757Z,11.40
2018-02-17T09:05:03.045Z,10.43
2018-02-17T09:08:06.350Z,10.67
2018-02-17T09:11:09.648Z,7.12
2018-02-17T09:14:12.923Z,7.97
2018-02-17T09:17:16.495Z,7.47
2018-02-17T09:20:19.869Z,6.10
2018-02-17T09:23:23.155Z,9.37
2018-02-17T09:26:26.457Z,11.10
2018-02-17T09:29:29.730Z,7.67
2018-02-17T09:32:33.757Z,8.83
2018-02-17T09:35:37.081Z,5.57
2018-02-17T09:38:40.353Z,9.43
2018-02-17T09:41:43.613Z,8.50
2018-02-17T09:44:46.960Z,11.03
2018-02-17T09:47:50.537Z,8.73
2018-02-17T09:50:54.801Z,11.63
2018-02-17T09:53:59.391Z,13.93
2018-02-17T09:57:03.000Z,8.90
2018-02-17T10:00:06.602Z,12.87
2018-02-17T10:03:10.173Z,10.07
2018-02-17T10:06:14.686Z,12.60
2018-02-17T10:09:17.962Z,12.13
2018-02-17T10:12:21.235Z,16.60
2018-02-17T10:15:24.546Z,11.03
2018-02-17T10:18:28.601Z,10.90
2018-02-17T10:21:32.670Z,10.95
2018-02-17T10:24:35.975Z,11.13
2018-02-17T10:27:39.274Z,12.03
2018-02-17T10:30:42.549Z,12.00
2018-02-17T10:33:46.789Z,11.27
2018-02-17T10:36:50.105Z,16.77
2018-02-17T10:39:53.375Z,12.83
2018-02-17T10:42:57.693Z,12.35
2018-02-17T10:46:00.985Z,14.27
2018-02-17T10:49:04.574Z,16.73
2018-02-17T10:52:08.627Z,15.13
2018-02-17T10:55:12.015Z,14.48
2018-02-17T10:58:15.309Z,17.90
2018-02-17T11:01:18.600Z,19.77
2018-02-17T11:04:22.221Z,14.63
2018-02-17T11:07:25.501Z,19.37
2018-02-17T11:10:29.644Z,13.87
2018-02-17T11:13:33.746Z,13.77
2018-02-17T11:16:37.173Z,13.20
2018-02-17T11:19:40.445Z,15.18
2018-02-17T11:22:43.765Z,18.43
2018-02-17T11:25:47.041Z,15.80
2018-02-17T11:28:50.446Z,18.43
2018-02-17T11:31:53.731Z,19.40
2018-02-17T11:34:59.215Z,17.07
2018-02-17T11:38:02.500Z,19.80
2018-02-17T11:41:05.777Z,20.70
2018-02-17T11:44:09.200Z,24.50
2018-02-17T11:47:12.702Z,22.47
2018-02-17T11:50:16.275Z,24.15
2018-02-17T11:53:19.811Z,20.27
2018-02-17T11:56:23.106Z,20.43
2018-02-17T11:59:27.262Z,23.70
2018-02-17T12:02:30.520Z,19.40
2018-02-17T12:05:33.854Z,22.42
2018-02-17T12:08:37.133Z,28.67
2018-02-17T12:11:40.400Z,23.50
2018-02-17T12:14:43.755Z,24.93
2018-02-17T12:17:48.020Z,20.23
2018-02-17T12:20:51.302Z,29.23
2018-02-17T12:23:55.342Z,28.13
2018-02-17T12:26:58.641Z,25.50
2018-02-17T12:30:02.028Z,26.07
2018-02-17T12:33:05.315Z,24.34
2018-02-17T12:36:09.440Z,22.33
2018-02-17T12:39:13.534Z,23.40
2018-02-17T12:42:17.600Z,24.87
2018-02-17T12:45:20.879Z,28.93
2018-02-17T12:48:24.272Z,29.40
2018-02-17T12:51:30.124Z,31.47
2018-02-17T12:54:34.239Z,26.10
2018-02-17T12:57:37.460Z,23.77
2018-02-17T13:00:40.731Z,26.00
2018-02-17T13:03:44.780Z,25.67
2018-02-17T13:06:48.050Z,26.50
2018-02-17T13:09:52.094Z,30.10
2018-02-17T13:12:55.378Z,24.63
2018-02-17T13:15:59.327Z,32.00
2018-02-17T13:19:02.626Z,25.93
2018-02-17T13:22:05.895Z,113.35
2018-02-17T13:25:09.187Z,14.60
2018-02-17T13:28:25.168Z,31.27
2018-02-17T13:31:28.458Z,60.33
2018-02-17T13:34:31.887Z,16.70
2018-02-17T13:37:35.168Z,15.43
2018-02-17T13:40:38.431Z,18.63
2018-02-17T13:43:41.719Z,17.03
2018-02-17T13:46:45.013Z,14.00
2018-02-17T13:49:48.365Z,17.37
2018-02-17T13:52:51.755Z,15.60
2018-02-17T13:55:55.782Z,13.27
2018-02-17T13:58:59.050Z,12.80
2018-02-17T14:02:03.391Z,11.85
2018-02-17T14:05:06.674Z,15.05
2018-02-17T14:08:10.734Z,14.43
2018-02-17T14:11:14.001Z,12.07
2018-02-17T14:14:18.035Z,12.53
2018-02-17T14:17:21.312Z,13.13
2018-02-17T14:20:24.887Z,10.97
2018-02-17T14:23:28.350Z,10.80
2018-02-17T14:26:33.016Z,10.67
2018-02-17T14:29:36.282Z,9.20
2018-02-17T14:32:39.622Z,9.85
2018-02-17T14:35:42.907Z,8.97
2018-02-17T14:38:46.946Z,10.25
2018-02-17T14:41:51.226Z,6.00
2018-02-17T14:44:54.495Z,10.17
2018-02-17T14:47:58.064Z,10.13
2018-02-17T14:51:02.090Z,7.17
2018-02-17T14:54:06.474Z,8.17
2018-02-17T14:57:09.748Z,7.97
2018-02-17T15:00:13.147Z,7.57
2018-02-17T15:03:16.460Z,6.83
2018-02-17T15:06:19.908Z,6.30
2018-02-17T15:09:23.280Z,5.33
2018-02-17T15:12:27.424Z,4.53
2018-02-17T15:15:31.458Z,4.50
2018-02-17T15:18:34.762Z,5.83
2018-02-17T15:21:38.053Z,5.37
2018-02-17T15:24:41.316Z,4.37
2018-02-17T15:27:45.350Z,5.13
2018-02-17T15:30:50.284Z,5.37
2018-02-17T15:33:53.557Z,5.60
2018-02-17T15:36:56.821Z,6.32
2018-02-17T15:40:00.128Z,5.77
2018-02-17T15:43:03.503Z,6.73
2018-02-17T15:46:06.993Z,6.90
2018-02-17T15:49:10.338Z,5.83
2018-02-17T15:55:40.463Z,8.30
2018-02-17T15:58:43.728Z,7.73
2018-02-17T16:01:46.985Z,9.00
2018-02-17T16:04:50.295Z,8.57
2018-02-17T16:07:53.539Z,7.72
2018-02-17T16:10:57.221Z,5.50
2018-02-17T16:14:00.481Z,6.60
2018-02-17T16:17:03.754Z,7.68
2018-02-17T16:20:07.033Z,10.93
2018-02-17T16:23:10.289Z,8.00
2018-02-17T16:26:14.499Z,11.73
2018-02-17T16:29:17.815Z,10.68
2018-02-17T16:32:21.863Z,9.80
2018-02-17T16:35:25.121Z,7.73
2018-02-17T16:38:29.151Z,7.37
2018-02-17T16:41:32.444Z,7.28
2018-02-17T16:44:36.786Z,6.48
2018-02-17T16:47:40.099Z,7.57
2018-02-17T16:50:44.102Z,8.80
2018-02-17T16:53:47.385Z,9.17
2018-02-17T16:56:51.638Z,6.57
2018-02-17T16:59:54.912Z,8.27
2018-02-17T17:02:58.178Z,9.93
2018-02-17T17:06:02.225Z,9.53
2018-02-17T17:09:05.577Z,9.70
2018-02-17T17:12:09.669Z,7.37
2018-02-17T17:15:13.043Z,10.10
2018-02-17T17:18:16.309Z,7.80
2018-02-17T17:21:20.341Z,8.07
2018-02-17T17:24:24.381Z,8.50
2018-02-17T17:27:27.649Z,10.83
2018-02-17T17:30:51.200Z,9.43
2018-02-17T17:33:57.623Z,9.73
2018-02-17T17:37:00.886Z,13.87
2018-02-17T17:40:04.433Z,13.97
2018-02-17T17:43:08.596Z,10.88
2018-02-17T17:46:12.639Z,13.60
2018-02-17T17:49:15.908Z,14.37
2018-02-17T17:52:19.946Z,15.50
2018-02-17T17:55:23.257Z,11.10
2018-02-17T17:58:26.513Z,13.07
2018-02-17T18:01:30.545Z,13.67
2018-02-17T18:04:33.819Z,12.30
2018-02-17T18:07:37.257Z,12.40
2018-02-17T18:10:40.526Z,15.93
2018-02-17T18:13:44.576Z,16.83
2018-02-17T18:16:47.879Z,13.90
2018-02-17T18:19:51.155Z,14.70
2018-02-17T18:22:54.436Z,15.30
2018-02-17T18:25:58.489Z,13.03
2018-02-17T18:29:01.766Z,15.93
2018-02-17T18:32:05.025Z,15.13
2018-02-17T18:35:08.347Z,13.98
2018-02-17T18:38:12.402Z,16.50
2018-02-17T18:41:16.481Z,17.30
2018-02-17T18:44:19.764Z,17.53
2018-02-17T18:47:23.809Z,15.87
2018-02-17T18:50:27.112Z,14.17
2018-02-17T18:53:30.370Z,15.00
2018-02-17T18:56:34.410Z,15.87
2018-02-17T18:59:37.697Z,17.10
2018-02-17T19:02:41.477Z,15.93
2018-02-17T19:05:44.737Z,17.67
2018-02-17T19:08:48.053Z,18.27
2018-02-17T19:11:51.343Z,13.93
2018-02-17T19:14:55.214Z,16.10
2018-02-17T19:17:59.249Z,16.80
2018-02-17T19:21:02.529Z,17.60
2018-02-17T19:24:05.824Z,17.80
2018-02-17T19:27:09.778Z,18.62
2018-02-17T19:30:13.069Z,22.93
2018-02-17T19:33:16.528Z,22.85
2018-02-17T19:36:19.867Z,22.23
2018-02-17T19:39:23.139Z,21.60
2018-02-17T19:42:26.484Z,20.40
2018-02-17T19:45:29.839Z,21.90
2018-02-17T19:48:33.156Z,24.37
2018-02-17T19:51:36.487Z,22.73
2018-02-17T19:54:39.765Z,25.33
2018-02-17T19:57:43.429Z,26.73
2018-02-17T20:00:46.727Z,22.90
2018-02-17T20:03:59.068Z,29.80
2018-02-17T20:07:02.873Z,26.57
2018-02-17T20:10:06.232Z,24.07
2018-02-17T20:13:10.694Z,22.87
2018-02-17T20:16:14.631Z,24.48
2018-02-17T20:19:17.953Z,25.70
2018-02-17T20:22:22.100Z,26.37
2018-02-17T20:25:25.425Z,28.57
2018-02-17T20:28:28.813Z,28.43
2018-02-17T20:31:32.226Z,33.83
2018-02-17T20:34:35.533Z,35.35
2018-02-17T20:37:38.817Z,33.88
2018-02-17T20:40:42.241Z,28.60
2018-02-17T20:43:45.532Z,28.70
2018-02-17T20:46:48.878Z,28.47
2018-02-17T20:49:53.022Z,31.60
2018-02-17T20:52:56.318Z,28.65
2018-02-17T20:55:59.636Z,22.97
2018-02-17T20:59:02.926Z,21.40
2018-02-17T21:02:06.284Z,26.53
2018-02-17T21:05:09.669Z,24.43
2018-02-17T21:08:13.023Z,22.17
2018-02-17T21:11:16.339Z,20.13
2018-02-17T21:14:19.704Z,19.93
2018-02-17T21:17:23.035Z,24.00
2018-02-17T21:20:26.331Z,18.17
2018-02-17T21:23:29.622Z,17.25
2018-02-17T21:26:33.627Z,21.70
2018-02-17T21:29:37.989Z,16.10
2018-02-17T21:32:41.348Z,14.50
2018-02-17T21:35:44.642Z,19.27
2018-02-17T21:38:47.925Z,21.03
2018-02-17T21:41:51.251Z,21.27
2018-02-17T21:44:54.520Z,21.27
2018-02-17T21:47:57.813Z,26.20
2018-02-17T21:51:01.857Z,23.77
2018-02-17T21:54:05.174Z,26.43
2018-02-17T21:57:08.457Z,20.93
2018-02-17T22:00:11.833Z,22.07
2018-02-17T22:03:15.881Z,20.30
2018-02-17T22:06:19.182Z,24.00
2018-02-17T22:09:22.470Z,19.20
2018-02-17T22:12:25.759Z,25.70
2018-02-17T22:15:29.071Z,22.63
2018-02-17T22:18:32.493Z,22.20
2018-02-17T22:21:35.798Z,22.08
2018-02-17T22:24:39.068Z,20.87
2018-02-17T22:27:42.462Z,24.33
2018-02-17T22:30:45.741Z,21.37
2018-02-17T22:33:49.335Z,24.55
2018-02-17T22:36:53.381Z,20.53
2018-02-17T22:39:56.907Z,26.30
2018-02-17T22:43:01.806Z,25.70
2018-02-17T22:46:05.853Z,22.73
2018-02-17T22:49:09.143Z,26.07
2018-02-17T22:52:12.430Z,26.67
2018-02-17T22:55:15.698Z,22.73
2018-02-17T22:58:21.056Z,21.33
2018-02-17T23:01:25.129Z,23.90
2018-02-17T23:04:28.453Z,23.77
2018-02-17T23:07:31.747Z,22.67
2018-02-17T23:10:35.023Z,24.40
2018-02-17T23:13:38.445Z,21.97
2018-02-17T23:16:43.243Z,25.87
2018-02-17T23:19:46.552Z,20.50
2018-02-17T23:22:49.820Z,22.90
2018-02-17T23:25:53.090Z,23.20
2018-02-17T23:28:57.131Z,21.08
2018-02-17T23:32:00.430Z,24.13
2018-02-17T23:35:03.718Z,19.80
2018-02-17T23:38:07.010Z,20.43
2018-02-17T23:41:10.285Z,21.87
2018-02-17T23:44:14.909Z,20.30
2018-02-17T23:47:18.261Z,25.37
2018-02-17T23:50:23.990Z,22.00
2018-02-17T23:53:27.291Z,21.25
2018-02-17T23:56:30.625Z,23.98
2018-02-17T23:59:33.957Z,26.50
